createdAt,value
2022-09-12T00:00:26.468Z,52.65
2022-09-12T00:10:32.616Z,52.80
2022-09-12T00:20:39.538Z,52.86
2022-09-12T00:30:46.478Z,52.85
2022-09-12T00:40:53.056Z,52.98
2022-09-12T00:50:59.374Z,53.10
2022-09-12T01:01:06.100Z,53.06
2022-09-12T01:11:12.929Z,53.20
2022-09-12T01:21:19.597Z,53.29
2022-09-12T01:31:26.553Z,53.19
2022-09-12T01:41:33.083Z,53.34
2022-09-12T01:51:39.385Z,53.41
2022-09-12T02:01:46.634Z,53.45
2022-09-12T02:11:53.304Z,53.47
2022-09-12T02:22:00.141Z,53.52
2022-09-12T02:32:07.229Z,53.54
2022-09-12T02:42:13.476Z,53.49
2022-09-12T02:52:19.552Z,53.50
2022-09-12T03:02:26.198Z,53.52
2022-09-12T03:12:32.768Z,53.48
2022-09-12T03:22:38.897Z,53.51
2022-09-12T03:32:45.455Z,53.56
2022-09-12T03:42:52.027Z,53.54
2022-09-12T03:52:58.999Z,53.52
2022-09-12T04:03:05.895Z,53.54
2022-09-12T04:13:12.861Z,53.55
2022-09-12T04:23:19.428Z,53.58
2022-09-12T04:33:26.374Z,53.59
2022-09-12T04:43:32.797Z,53.67
2022-09-12T04:53:39.463Z,53.59
2022-09-12T05:03:45.724Z,53.61
2022-09-12T05:13:52.186Z,53.64
2022-09-12T05:23:59.157Z,53.68
2022-09-12T05:34:05.625Z,53.78
2022-09-12T05:44:12.194Z,53.63
2022-09-12T05:54:18.193Z,54.14
2022-09-12T06:04:24.645Z,53.52
2022-09-12T06:14:30.961Z,53.31
2022-09-12T06:24:37.613Z,53.11
2022-09-12T06:34:44.419Z,53.72
2022-09-12T06:44:51.258Z,53.38
2022-09-12T06:54:57.663Z,53.34
2022-09-12T07:05:04.279Z,53.62
2022-09-12T07:15:10.705Z,53.61
2022-09-12T07:25:17.663Z,53.75
2022-09-12T07:35:24.378Z,54.01
2022-09-12T07:45:30.632Z,53.66
2022-09-12T07:55:37.560Z,53.63
2022-09-12T08:05:44.285Z,53.50
2022-09-12T08:15:50.910Z,53.42
2022-09-12T08:25:57.641Z,53.47
2022-09-12T08:36:04.632Z,53.39
2022-09-12T08:46:10.972Z,53.73
2022-09-12T08:56:17.748Z,53.35
2022-09-12T09:06:24.502Z,53.32
2022-09-12T09:16:30.724Z,53.23
2022-09-12T09:26:37.523Z,53.23
2022-09-12T09:36:44.379Z,53.09
2022-09-12T09:46:51.041Z,53.29
2022-09-12T09:56:57.917Z,53.27
2022-09-12T10:07:04.326Z,53.42
2022-09-12T10:17:10.875Z,53.43
2022-09-12T10:27:17.246Z,53.87
2022-09-12T10:37:23.774Z,53.53
2022-09-12T10:47:30.420Z,53.18
2022-09-12T10:57:37.400Z,53.25
2022-09-12T11:07:43.669Z,53.51
2022-09-12T11:17:50.596Z,53.83
2022-09-12T11:27:57.554Z,53.93
2022-09-12T11:38:04.112Z,53.11
2022-09-12T11:48:10.519Z,53.18
2022-09-12T11:58:16.699Z,53.49
2022-09-12T12:08:23.024Z,53.06
2022-09-12T12:18:29.244Z,53.26
2022-09-12T12:28:35.865Z,53.28
2022-09-12T12:38:41.932Z,53.68
2022-09-12T12:48:48.096Z,53.38
2022-09-12T12:58:54.603Z,53.76
2022-09-12T13:09:00.675Z,53.77
2022-09-12T13:19:07.333Z,54.03
2022-09-12T13:29:13.408Z,53.52
2022-09-12T13:39:19.696Z,53.30
2022-09-12T13:49:25.963Z,53.88
2022-09-12T13:59:33.076Z,53.86
2022-09-12T14:09:39.908Z,53.71
2022-09-12T14:19:46.954Z,53.64
2022-09-12T14:29:53.472Z,54.15
2022-09-12T14:40:00.540Z,54.09
2022-09-12T14:50:11.091Z,54.55
2022-09-12T15:00:18.122Z,53.72
2022-09-12T15:10:24.915Z,53.68
2022-09-12T15:20:31.462Z,53.86
2022-09-12T15:30:38.435Z,54.29
2022-09-12T15:40:45.142Z,53.71
2022-09-12T15:50:52.551Z,53.69
2022-09-12T16:00:59.071Z,53.40
2022-09-12T16:11:05.738Z,53.58
2022-09-12T16:21:15.147Z,53.24
2022-09-12T16:31:23.631Z,53.53
2022-09-12T16:41:30.696Z,53.84
2022-09-12T16:51:37.880Z,54.44
2022-09-12T17:01:45.431Z,54.34
2022-09-12T17:11:52.766Z,53.99
2022-09-12T17:22:00.169Z,54.13
2022-09-12T17:32:07.476Z,54.39
2022-09-12T17:42:16.226Z,54.41
2022-09-12T17:52:23.564Z,54.31
2022-09-12T18:02:33.243Z,54.25
2022-09-12T18:12:40.623Z,54.13
2022-09-12T18:22:47.751Z,54.28
2022-09-12T18:32:54.745Z,54.24
2022-09-12T18:43:01.145Z,54.22
2022-09-12T18:53:07.628Z,54.32
2022-09-12T19:03:14.304Z,54.37
2022-09-12T19:13:20.867Z,54.25
2022-09-12T19:23:27.146Z,54.44
2022-09-12T19:33:33.001Z,54.49
2022-09-12T19:43:39.081Z,54.47
2022-09-12T19:53:45.267Z,54.55
2022-09-12T20:03:52.353Z,54.62
2022-09-12T20:13:58.900Z,54.63
2022-09-12T20:24:05.136Z,54.58
2022-09-12T20:34:11.270Z,54.58
2022-09-12T20:44:17.516Z,54.66
2022-09-12T20:54:23.906Z,54.62
2022-09-12T21:04:30.285Z,54.57
2022-09-12T21:14:37.455Z,54.45
2022-09-12T21:24:44.051Z,54.39
2022-09-12T21:34:50.332Z,54.49
2022-09-12T21:44:56.540Z,54.44
2022-09-12T21:55:02.998Z,54.36
2022-09-12T22:05:10.092Z,53.89
2022-09-12T22:15:39.580Z,53.94
2022-09-12T22:25:28.669Z,53.90
2022-09-12T22:35:35.319Z,53.99
2022-09-12T22:45:41.650Z,54.05
2022-09-12T22:55:48.381Z,53.92
2022-09-12T23:05:54.542Z,53.93
2022-09-12T23:16:01.072Z,54.44
2022-09-12T23:26:07.246Z,53.71
2022-09-12T23:36:13.594Z,53.57
2022-09-12T23:46:22.623Z,53.81
2022-09-12T23:56:29.185Z,53.74
